Timeline UpdatesTrip UpdatesNews PostsPvt PostsTravel TipsAdmin PostsConv PostsFollowed PostsChat RequestsBlog PostsPNR Posts

Disclaimer
Search
 
 
Fri Apr 18, 2014 23:44:12 ISTHomeTrainsΣChainsAtlasPNRForumGalleryNewsFAQTripsMembersLoginFeedback
No Recent News for this Train
Other Trains in the News **new
Latest...
T.No.57640 Guntur - Tirupati Passenger which left Guntur at 01.00 hrs o­n 29/04/2013 is partially cancelled between Gudur and Tirupati.
Mon Apr 29, 2013 (01:25PM)
⇐ Return Journey: Train# 57639

57640/Guntur Tirupati Passanger (UnReserved)

Oct 01 2013 (11:32AM)
Change Departure Station:
Change Arrival Station:
Post a Train Travel TipPost a Train Travel Tip **new
Post a Comment/Question/Picture/VideoPost a Comment/Question/Picture/Video
Pantry/Catering
✕ NO Pantry Car
✕ NO Catering
RSA - Rake Sharing
57623-57640-57639-57624
Rake/Coach Composition
10 general second class and two second class luggage-cum-brake vans from 1st Dec
Loco
WDM3 of GTL Shed
News    PNR    Forum    Time-Table    Availability    Fare Chart    Map    Arr/Dep History    Trips    Gallery    ΣChains    X/O    Timeline    
Travel Time: 5h 44m    29 halts    Distance: 224 km    Avg Speed: 39 km/hr
Type: Passenger
Zone: SCR/South Central
Departs @ 02:15 (Avg 48m late)
Platform# ???
SMTWTFS
Tenali Junction/TEL 
Arrives @ 07:59 (Avg 59m late)
Platform# 3
SMTWTFS
Nellore/NLR 

29 halts. 33 intermediate Stations between Tenali Junction and Nellore

Show ALL intermediate Stations  Show Old Time-Table

#CodeStation NameX/OArrivesAvgDepartsAvgHaltPFDay#KmSpeedElevZoneAddress
1GNTGuntur Junction (7)  -01:00+5--1-25.66337mSCRGuntur, Andhra Pradesh
2VJAVejandla (1)  01:11+701:12+81m11-14.06822mSCRPhone Number : 0863-2534861, Andhra Pradesh
3SJLSangam Jagarlamudi (2)X  01:17+1901:18+201m--1-8.31116mSCRPhone Number : 08644-258120, Andhra Pradesh
4TEL»Tenali Junction (5)»XO  02:05+3402:15+4810m--10.06916mSCRTel: 08644-227834, Andhra Pradesh
5TSRTsunduru (3)O  02:25+5302:26+541m--111.54312mSCRTsunduru, Andhra Pradesh
6MDKUModukuru (2)X  02:31+5502:32+551m--115.25910mSCRModukuru, Andhra Pradesh
7NDONidubrolu (3)O  02:39+5502:40+581m--122.0599mSCRNidubrolu, Andhra Pradesh
8APLAppikatla (2)X  02:52+5902:53+1:001m--133.8587mSCRGBC Rd, Andhra Pradesh
9BPPBapatla (3)X  03:02+1:0003:03+1:051m--142.65110mSCRBapatla, Andhra Pradesh
10SPFStuartpuram  03:11+1:0703:12+1:071m--149.5709mSCRBapatla West Rural, Andhra Pradesh
11CLXChirala (4)O  03:19+1:0803:20+1:191m--157.7328mSCRChirala, Andhra Pradesh
12JAQJandrapeta (2)X  03:26+1:1903:27+1:191m--160.9409mSCRChirala, Andhra Pradesh
13VTMVetapalem (3)O  03:34+1:1903:35+1:221m--165.5428mSCRVetapalem, Andhra Pradesh
14KPLLKottapandillapalli (2)X  03:40+1:2203:41+1:221m--169.1518mSCRNH 214A, Andhra Pradesh
15KVDUKadavakuduru (2)X  03:46+1:2203:47+1:221m--173.3568mSCRKadavakuduru, Andhra Pradesh
16CJMChinnaganjam (3)X  03:52+1:2203:53+1:241m--178.0499mSCRChinna Ganjam, Andhra Pradesh
17UGDUppugunduru (2)X  04:01+1:2504:02+1:271m--184.5525mSCRUppugundur Machavaram Rd, Andhra Pradesh
18RPRLRaparla Halt (2)  04:07+1:2804:08+1:281m--188.8399mSCRNH 214A, Andhra Pradesh
19ANBAmmanabrolu (3)  04:13+1:2804:14+1:291m--192.17616mSCRAmmanabrolu, Andhra Pradesh
20KRVKaravadi (2)XO  04:19+1:2404:20+1:241m--198.4711mSCRKaravadi, Andhra Pradesh
21OGLOngole (3)  05:34+3105:35+351m31107.06912mSCROngole ph.no . 08592-280202, Andhra Pradesh
22SDMSurareddipalem (3)  05:44+3505:45+361m--1117.3559mSCRSurareddy Palem, Andhra Pradesh
23TNRTanguturu (2)  05:54+3705:55+371m--1125.67210mSCRTanguturu, Andhra Pradesh
24SKMSingarayakonda (3)  06:03+3806:04+391m31135.37226mSCRSingarayakonda, Andhra Pradesh
25UPDUlavapadu (2)X  06:12+4106:13+461m--1144.97613mSCRUlavapadu, Andhra Pradesh
26TTUTettu (2)  06:24+1:0006:25+1:001m--1158.87124mSCRNational Highway 5, Andhra Pradesh
27KVZKavali (4)  06:37+1:0006:38+1:001m21173.07421mSCRKavali, Andhra Pradesh
28SVPMSri Venkateswarapalem (2)X  06:48+1:0006:49+1:001m--1185.31722mSCRNational Highway 5, Andhra Pradesh
29BTTRBitragunta (2)  07:04+1:0007:05+1:011m21189.55615mSCRBitragunta, Andhra Pradesh
30AXRAlluru RoadX  07:12+1:0307:13+1:031m--1196.0698mSCRNational Highway 5, Andhra Pradesh
31TMCTalamanchi  07:23+1:0307:24+1:031m--1207.64815mSCRNational Highway 5, Andhra Pradesh
32KJJKodavaluru (2)  07:30+1:0307:31+1:031m--1212.34517mSCRNational Highway 5, Andhra Pradesh
33PGUPadugupadu (3)XO  07:41+1:0307:42+1:031m31219.81421mSCRKovur, Andhra Pradesh
34NLR•Nellore (4)•O  07:59+5908:00+591m31223.81921mSCRNellore, Andhra Pradesh
35NLSNellore South (2)X  08:06+1:0208:07+1:021m21225.75422mSCRNellore, Andhra Pradesh
36VDEVedayapalem (2)X  08:13+1:0208:14+1:021m21231.15127mSCRNellore, Andhra Pradesh
37VKTVenkatachalam (3)X  08:25+1:0208:26+1:021m31240.36726mSCRVenkatachelam, Andhra Pradesh
38MBLManubolu (3)XO  08:37+2308:38+231m31252.71322mSCRManubolu Railway Station, Andhra Pradesh
39GDRGudur Junction (3)X  09:23+709:25+72m11262.35319mSCRGudur, Andhra Pradesh
40KQAKondagunta (1)  09:36+1509:37+151m11272.06353mSCRNellore, Andhra Pradesh
41VDDVendodu (2)  09:46+1509:48+152m--1281.57455mSCRNellore, Andhra Pradesh
42NDZNidigallu (2)  09:55+1509:56+151m--1290.18055mSCRSiddavaram, Andhra Pradesh
43VKIVenkatagiri (3)  10:02+1510:03+151m21298.04977mSCRNellore District, Andhra Pradesh
44YLKYellakaru (1)X  10:18+1510:19+151m11310.35273mSCRCoastal Andhra Region, Andhra Pradesh
45KHTSri Kalahasti (2)X  10:33+1510:34+151m11322.55268mSCRChittoor District, Andhra Pradesh
46RCGRachagunnari  10:42+1510:43+151m--1329.43282mSCRRayalaseema Region, Andhra Pradesh
47YPDYerpedu (2)X  10:55+1310:56+131m--1335.83180mSCRChittoor, Andhra Pradesh
48RURenigunta Junction (5)X  11:15+811:25+710m--1345.620113mSCRChittoor District, Andhra Pradesh
49TPTYTirupati Main (5)  11:55+4---1355.5-150mSCRChittoor Distt, Andhra Pradesh
Scroll to Top
Scroll to Bottom